Main page
METAR-TAF:

METAR-TAF

Airports :

Yap International Airport

Yap, Micronesia

latitude: 09-29N, longitude: 138-05E, elevation: 28 m

Current weather observation

The report was made 25 minutes ago, at 17:50 UTC
Wind 7 kt from the North/Northeast
Temperature 27°C
Humidity 84%
Pressure 1008 hPa
Visibility: 19.3 km
Few clouds at a height of 1600 ft
Scattered clouds at a height of 30000 ft

METAR: PTYA 201750Z 02007KT 12SM FEW016 SCT300 27/24 A2978 RMK SLP084 8/101 T02720242 10272 20258 57015

Time: 04:15 (18:15 UTC)

Forecast

The report was made 55 minutes ago, at 17:20 UTC
Forecast valid from 20 at 18 UTC to 21 at 18 UTC
Wind 5 kt from the North/Northeast
Visibility: 10 km
Few clouds at a height of 1600 ft
Few clouds at a height of 13000 ft
showers in vicinity

TAF: PTYA 201720Z 2018/2118 03005KT P6SM VCSH FEW016 FEW130

Weather observations and forecasts of more than 4000 airports (METAR and TAF reports).

The available stations are represented by yellow and red dots on the map.

Hover mouse over dot to see the name of the station.

Then click to see weather observations and forecasts.

To change the map : click on the green buttons with a black cross to zoom in, on the green button with a dash to zoom out, or on the green arrows for adjacent maps.


METAR-TAF: